Time;durP1;ratioP1;P1;durP2;ratioP2;P2;SDS_P1;SDS_P2;PMS_P1;PMS_P2;Temp;Humidity;BMP_temperature;BMP_pressure;BME280_temperature;BME280_humidity;BME280_pressure;Samples;Min_cycle;Max_cycle;Signal;HPM_P1;HPM_P2
2023/10/12 00:01:57;;;;;;;10.32;6.32;;;;;;;20.13;58.86;99280.84;4906959;29;20111;-81
2023/10/12 00:04:43;;;;;;;10.65;6.22;;;;;;;20.07;59.16;99276.13;4914270;29;20052;-82
2023/10/12 00:07:33;;;;;;;9.35;6.10;;;;;;;20.08;58.76;99266.31;4912948;29;20058;-81
2023/10/12 00:10:02;;;;;;;9.73;5.72;;;;;;;20.04;58.97;99265.81;4913772;29;20143;-82
2023/10/12 00:12:29;;;;;;;15.07;6.72;;;;;;;19.99;58.92;99266.28;4909024;29;20092;-82
2023/10/12 00:14:55;;;;;;;12.63;6.45;;;;;;;19.95;59.39;99286.25;4914265;29;20052;-82
2023/10/12 00:17:28;;;;;;;16.63;7.70;;;;;;;19.89;59.23;99301.06;4914123;29;20135;-82
2023/10/12 00:19:54;;;;;;;19.05;7.43;;;;;;;19.85;59.39;99302.41;4913765;29;20052;-82
2023/10/12 00:22:23;;;;;;;11.23;6.60;;;;;;;19.81;59.56;99311.72;4907562;29;20079;-81
2023/10/12 00:24:52;;;;;;;16.67;7.28;;;;;;;19.75;60.12;99305.19;4914397;29;20056;-82
2023/10/12 00:27:20;;;;;;;14.18;6.90;;;;;;;19.70;60.09;99301.31;4914084;29;20055;-81
2023/10/12 00:29:49;;;;;;;14.90;7.20;;;;;;;19.66;60.03;99301.63;4910154;29;20486;-81
2023/10/12 00:32:15;;;;;;;16.80;7.72;;;;;;;19.60;60.33;99302.28;4903565;29;20057;-81
2023/10/12 00:34:46;;;;;;;13.13;7.93;;;;;;;19.55;60.76;99293.88;4914432;29;20119;-81
2023/10/12 00:37:13;;;;;;;12.32;7.22;;;;;;;19.51;60.98;99293.38;4914036;29;20064;-81
2023/10/12 00:42:24;;;;;;;15.65;8.32;;;;;;;19.40;60.95;99299.81;4909435;29;20068;-81
2023/10/12 00:44:54;;;;;;;10.48;7.90;;;;;;;19.37;61.41;99286.75;4918203;29;20059;-81
2023/10/12 00:47:43;;;;;;;13.13;7.72;;;;;;;19.33;61.33;99272.06;4917360;29;20111;-81
2023/10/12 00:50:11;;;;;;;13.48;8.25;;;;;;;19.30;62.02;99268.88;4917894;29;20083;-81
2023/10/12 00:52:55;;;;;;;13.25;7.85;;;;;;;19.25;62.01;99264.03;4915275;29;21117;-81
2023/10/12 00:55:34;;;;;;;21.23;8.27;;;;;;;19.23;61.96;99282.84;4917732;29;20135;-82
2023/10/12 00:58:05;;;;;;;13.63;8.35;;;;;;;19.19;62.08;99281.50;4917728;29;20135;-81
2023/10/12 01:00:51;;;;;;;16.75;8.70;;;;;;;19.16;62.53;99289.78;4914495;29;20048;-81
2023/10/12 01:06:20;;;;;;;14.13;8.88;;;;;;;19.07;62.78;99282.72;4911292;29;20127;-81
2023/10/12 01:08:47;;;;;;;14.80;9.02;;;;;;;19.02;62.85;99277.81;4917955;29;20142;-82
2023/10/12 01:11:20;;;;;;;16.45;9.20;;;;;;;18.99;63.24;99288.81;4913341;29;20062;-81
2023/10/12 01:13:50;;;;;;;16.38;8.90;;;;;;;18.95;63.14;99272.25;4914974;29;20087;-81
2023/10/12 01:16:22;;;;;;;14.90;8.90;;;;;;;18.94;63.59;99277.75;4916009;29;20127;-81
2023/10/12 01:18:55;;;;;;;15.20;9.35;;;;;;;18.93;63.74;99281.41;4917309;29;20044;-81
2023/10/12 01:21:22;;;;;;;13.05;8.60;;;;;;;18.91;63.72;99286.88;4916974;29;20052;-81
2023/10/12 01:23:52;;;;;;;13.52;10.15;;;;;;;18.88;63.83;99290.69;4914501;29;20116;-81
2023/10/12 01:26:19;;;;;;;18.05;9.43;;;;;;;18.87;63.96;99302.38;4917001;29;20219;-81
2023/10/12 01:28:49;;;;;;;17.25;10.95;;;;;;;18.86;63.86;99302.53;4909626;29;20070;-81
2023/10/12 01:31:26;;;;;;;17.95;10.63;;;;;;;18.83;64.62;99298.31;4917108;29;20112;-81
2023/10/12 01:33:58;;;;;;;17.15;10.15;;;;;;;18.83;64.59;99290.34;4904100;29;20119;-81
2023/10/12 01:36:30;;;;;;;;;;;;;;;18.81;64.42;99272.81;4916324;29;20048;-81
2023/10/12 01:39:10;;;;;;;15.70;9.75;;;;;;;18.84;64.08;99268.00;4917227;29;19933;-81
2023/10/12 01:41:40;;;;;;;17.23;10.93;;;;;;;18.80;64.15;99263.97;4916923;29;20052;-81
2023/10/12 01:44:11;;;;;;;17.77;11.27;;;;;;;18.78;64.44;99265.97;4909525;29;20127;-81
2023/10/12 01:46:41;;;;;;;16.02;10.10;;;;;;;18.75;64.66;99271.59;4916873;29;20048;-81
2023/10/12 01:49:09;;;;;;;17.13;12.00;;;;;;;18.74;64.78;99275.25;4917030;29;20051;-81
2023/10/12 01:51:40;;;;;;;19.10;11.02;;;;;;;18.72;65.05;99278.06;4916915;29;20792;-81
2023/10/12 01:54:11;;;;;;;17.70;11.80;;;;;;;18.72;64.72;99287.88;4914581;29;20099;-81
2023/10/12 01:56:38;;;;;;;19.58;12.48;;;;;;;18.71;65.16;99289.72;4916578;29;20103;-81
2023/10/12 01:59:07;;;;;;;19.55;11.00;;;;;;;18.70;65.21;99290.72;4917048;29;20045;-81
2023/10/12 02:01:34;;;;;;;18.60;11.57;;;;;;;18.70;65.49;99285.41;4916328;29;20088;-81
2023/10/12 02:04:02;;;;;;;23.98;12.98;;;;;;;18.71;65.26;99283.53;4916067;29;20222;-81
2023/10/12 02:06:29;;;;;;;20.25;12.18;;;;;;;18.71;65.58;99288.88;4916177;29;20405;-81
2023/10/12 02:09:02;;;;;;;17.92;12.45;;;;;;;18.69;65.31;99299.69;4915062;29;20056;-81
2023/10/12 02:11:44;;;;;;;19.58;11.15;;;;;;;18.69;65.61;99298.88;4916306;29;20044;-81
2023/10/12 02:14:12;;;;;;;17.67;12.00;;;;;;;18.68;65.68;99307.84;4914540;29;20045;-81
2023/10/12 02:16:39;;;;;;;22.33;13.02;;;;;;;18.65;65.50;99321.50;4914766;29;20533;-81
2023/10/12 02:19:07;;;;;;;18.17;13.18;;;;;;;18.61;65.89;99329.78;4916158;29;20134;-81
2023/10/12 02:21:37;;;;;;;22.30;14.00;;;;;;;18.58;66.16;99335.41;4916328;29;20074;-81
2023/10/12 02:26:37;;;;;;;23.58;13.30;;;;;;;18.50;66.71;99337.97;4915220;29;20044;-81
2023/10/12 02:29:12;;;;;;;22.35;13.55;;;;;;;18.48;66.28;99334.63;4916194;29;20103;-81
2023/10/12 02:31:56;;;;;;;23.13;13.55;;;;;;;18.41;67.22;99334.41;4915909;29;20067;-81
2023/10/12 02:34:25;;;;;;;21.60;13.27;;;;;;;18.38;66.90;99340.00;4915597;29;20086;-81
2023/10/12 02:37:05;;;;;;;24.15;13.73;;;;;;;18.35;67.17;99342.97;4908505;29;20054;-81
2023/10/12 02:39:40;;;;;;;24.08;14.65;;;;;;;18.33;67.07;99345.81;4915732;29;20052;-81
2023/10/12 02:42:17;;;;;;;24.00;13.65;;;;;;;18.30;67.26;99348.75;4907850;29;20416;-81
2023/10/12 02:47:31;;;;;;;23.75;14.63;;;;;;;18.27;67.76;99370.34;4912096;29;20048;-81
2023/10/12 02:52:38;;;;;;;24.85;14.13;;;;;;;18.26;67.67;99374.00;4915263;29;20462;-81
2023/10/12 02:55:26;;;;;;;18.80;12.55;;;;;;;18.26;67.82;99363.34;4913821;29;20548;-80
2023/10/12 02:57:56;;;;;;;18.45;12.77;;;;;;;18.26;68.21;99363.34;4915232;29;20135;-81
2023/10/12 03:00:44;;;;;;;18.02;12.40;;;;;;;18.26;68.24;99376.69;4915127;29;20497;-80
2023/10/12 03:03:55;;;;;;;20.20;11.70;;;;;;;18.28;67.76;99379.19;4915285;29;20083;-81
2023/10/12 03:06:07;;;;;;;11.63;8.75;;;;;;;18.29;67.88;99378.22;4903733;29;20104;-81
2023/10/12 03:08:52;;;;;;;11.70;7.70;;;;;;;18.29;67.58;99373.72;4915189;29;20051;-80
2023/10/12 03:11:20;;;;;;;10.68;6.40;;;;;;;18.28;67.98;99380.03;4915041;29;20054;-81
2023/10/12 03:16:34;;;;;;;8.05;5.65;;;;;;;18.28;67.78;99381.88;4914098;29;20058;-81
2023/10/12 03:19:06;;;;;;;9.27;6.05;;;;;;;18.28;67.82;99393.34;4915159;29;20063;-81
2023/10/12 03:21:34;;;;;;;8.80;6.07;;;;;;;18.28;68.18;99398.66;4914810;29;20048;-80
2023/10/12 03:24:03;;;;;;;7.18;4.97;;;;;;;18.29;68.11;99421.69;4914789;29;20059;-80
2023/10/12 03:26:32;;;;;;;4.28;2.40;;;;;;;18.29;67.33;99423.50;4908622;29;20048;-80
2023/10/12 03:29:09;;;;;;;2.03;1.40;;;;;;;18.28;67.08;99422.66;4915031;29;20083;-81
2023/10/12 03:31:51;;;;;;;1.15;0.90;;;;;;;18.25;66.45;99396.31;4914924;29;20052;-80
2023/10/12 03:34:35;;;;;;;1.73;0.95;;;;;;;18.21;66.25;99371.78;4913161;29;20104;-81
2023/10/12 03:37:13;;;;;;;1.70;0.80;;;;;;;18.18;65.96;99408.53;4911298;29;20059;-81
2023/10/12 03:42:39;;;;;;;1.05;0.63;;;;;;;18.04;66.08;99421.31;4914689;29;20062;-80
2023/10/12 03:45:08;;;;;;;2.20;0.80;;;;;;;18.01;66.01;99410.13;4914209;29;20048;-81
2023/10/12 03:47:46;;;;;;;1.40;0.57;;;;;;;17.95;65.90;99403.53;4913790;29;20056;-80
2023/10/12 03:50:17;;;;;;;1.75;0.70;;;;;;;17.90;66.02;99409.28;4914734;29;20043;-80
2023/10/12 03:52:52;;;;;;;0.90;0.60;;;;;;;17.84;65.74;99416.00;4913631;29;20140;-80
2023/10/12 03:55:28;;;;;;;1.65;0.63;;;;;;;17.81;65.32;99410.16;4913531;29;20131;-80
2023/10/12 03:58:05;;;;;;;4.68;1.20;;;;;;;17.74;65.28;99412.53;4914412;29;20048;-80
2023/10/12 04:00:48;;;;;;;2.60;1.10;;;;;;;17.66;65.46;99409.75;4914688;29;20401;-81
2023/10/12 04:03:34;;;;;;;2.85;0.98;;;;;;;17.62;65.17;99408.34;4905922;29;20055;-81
2023/10/12 04:06:22;;;;;;;5.82;1.00;;;;;;;17.52;65.77;99393.25;4907154;29;20123;-81
2023/10/12 04:08:54;;;;;;;3.35;1.35;;;;;;;17.51;65.13;99396.03;4914440;29;20052;-81
2023/10/12 04:11:47;;;;;;;5.77;1.47;;;;;;;17.46;65.62;99393.81;4914478;29;20052;-81
2023/10/12 04:17:21;;;;;;;4.05;1.48;;;;;;;17.36;65.16;99396.47;4914734;29;20097;-75
2023/10/12 04:25:13;;;;;;;8.52;1.90;;;;;;;17.21;65.05;99406.69;4916955;29;20123;-75
2023/10/12 04:27:57;;;;;;;8.15;2.75;;;;;;;17.17;65.09;99407.94;4915730;29;20052;-75
2023/10/12 04:30:42;;;;;;;6.47;2.53;;;;;;;17.13;65.24;99406.53;4913527;29;20048;-75
2023/10/12 04:33:17;;;;;;;9.75;4.00;;;;;;;17.09;65.02;99403.34;4918864;29;20067;-75
2023/10/12 04:38:46;;;;;;;6.93;3.20;;;;;;;17.04;65.37;99411.72;4915122;29;20048;-75
2023/10/12 04:43:53;;;;;;;8.50;4.15;;;;;;;16.98;65.75;99411.41;4918247;29;20485;-75
2023/10/12 04:49:53;;;;;;;9.75;3.80;;;;;;;16.95;66.08;99407.19;4914892;29;20048;-75
2023/10/12 04:54:49;;;;;;;6.50;2.83;;;;;;;16.92;65.59;99429.59;4918223;29;20108;-75
2023/10/12 04:57:16;;;;;;;6.30;3.00;;;;;;;16.90;65.93;99460.75;4917998;29;20048;-75
2023/10/12 04:59:50;;;;;;;10.30;3.72;;;;;;;16.90;65.80;99476.72;4916712;29;20056;-74
2023/10/12 05:02:41;;;;;;;8.57;3.97;;;;;;;16.88;65.97;99454.75;4918258;29;20480;-75
2023/10/12 05:07:55;;;;;;;10.48;5.18;;;;;;;16.84;65.72;99453.34;4889944;29;20132;-75
2023/10/12 05:10:37;;;;;;;10.07;5.28;;;;;;;16.81;66.28;99464.25;4908938;29;20041;-75
2023/10/12 05:13:05;;;;;;;10.35;5.72;;;;;;;16.78;66.08;99462.69;4909979;29;20230;-76
2023/10/12 05:15:41;;;;;;;10.00;5.15;;;;;;;16.77;66.32;99458.38;4917750;29;20059;-76
2023/10/12 05:18:09;;;;;;;8.50;4.35;;;;;;;16.77;65.83;99455.72;4910113;29;20139;-75
2023/10/12 05:20:36;;;;;;;6.68;3.40;;;;;;;16.75;66.01;99460.31;4912809;29;20104;-75
2023/10/12 05:23:03;;;;;;;7.05;2.70;;;;;;;16.75;66.16;99462.13;4917430;29;20135;-76
2023/10/12 05:28:27;;;;;;;8.25;2.63;;;;;;;16.71;66.18;99453.56;4917125;29;20498;-75
2023/10/12 05:30:59;;;;;;;5.45;2.47;;;;;;;16.73;65.97;99470.25;4913459;29;20127;-75
2023/10/12 05:36:10;;;;;;;4.70;1.77;;;;;;;16.72;66.08;99471.22;4917014;29;20510;-75
2023/10/12 05:38:49;;;;;;;5.00;1.88;;;;;;;16.71;66.66;99474.00;4916231;29;20432;-75
2023/10/12 05:41:22;;;;;;;9.82;2.22;;;;;;;16.72;66.30;99471.22;4902291;29;20083;-75
2023/10/12 05:43:48;;;;;;;7.03;1.80;;;;;;;16.73;66.27;99469.38;4914691;29;20536;-76
2023/10/12 05:46:15;;;;;;;7.30;2.00;;;;;;;16.73;66.55;99480.88;4917126;29;20051;-75
2023/10/12 05:48:46;;;;;;;4.82;1.75;;;;;;;16.73;66.58;99488.84;4917277;29;20059;-76
2023/10/12 05:51:21;;;;;;;6.43;1.77;;;;;;;16.75;66.42;99491.38;4906189;29;20051;-75
2023/10/12 05:54:02;;;;;;;5.00;1.90;;;;;;;16.75;66.55;99496.69;4913717;29;20048;-75
2023/10/12 05:56:36;;;;;;;5.70;1.85;;;;;;;16.75;66.28;99491.38;4916173;29;20111;-75
2023/10/12 05:59:12;;;;;;;5.30;2.03;;;;;;;16.77;66.37;99503.56;4916487;29;20048;-75
2023/10/12 06:01:40;;;;;;;5.47;1.88;;;;;;;16.77;66.38;99506.22;4915752;29;20062;-75
2023/10/12 06:04:07;;;;;;;4.57;1.85;;;;;;;16.76;66.49;99507.19;4915711;29;20052;-75
2023/10/12 06:06:36;;;;;;;5.07;2.30;;;;;;;16.76;66.60;99512.50;4916143;29;20048;-74
2023/10/12 06:09:12;;;;;;;5.82;2.53;;;;;;;16.78;66.40;99509.69;4916300;29;20058;-75
2023/10/12 06:11:41;;;;;;;7.20;2.22;;;;;;;16.77;66.67;99516.84;4911259;29;20048;-75
2023/10/12 06:14:09;;;;;;;5.68;2.17;;;;;;;16.78;66.38;99518.50;4909685;29;20150;-75
2023/10/12 06:16:44;;;;;;;11.55;3.40;;;;;;;16.79;66.45;99522.03;4915520;29;20040;-74
2023/10/12 06:19:26;;;;;;;8.90;4.10;;;;;;;16.79;66.34;99527.34;4916101;29;20059;-74
2023/10/12 06:22:19;;;;;;;9.55;4.55;;;;;;;16.78;66.28;99539.78;4913984;29;20056;-74
2023/10/12 06:24:49;;;;;;;10.02;3.55;;;;;;;16.77;66.23;99538.09;4910413;29;20398;-74
2023/10/12 06:29:45;;;;;;;9.82;3.72;;;;;;;16.74;66.16;99537.53;4916046;29;20048;-75
2023/10/12 06:32:19;;;;;;;8.32;3.50;;;;;;;16.73;66.07;99543.81;4914011;29;20127;-74
2023/10/12 06:35:34;;;;;;;10.00;4.05;;;;;;;16.71;66.35;99548.44;4914239;29;20052;-75
2023/10/12 06:37:59;;;;;;;12.05;5.07;;;;;;;16.69;66.62;99545.91;4905528;29;20059;-75
2023/10/12 06:45:52;;;;;;;8.68;4.50;;;;;;;16.66;66.98;99538.19;4915402;29;20055;-75
2023/10/12 06:51:01;;;;;;;8.35;4.05;;;;;;;16.69;66.71;99545.91;4915373;29;20055;-75
2023/10/12 06:53:35;;;;;;;6.03;3.13;;;;;;;16.68;66.77;99553.00;4910647;29;20056;-75
2023/10/12 07:04:14;;;;;;;7.18;2.40;;;;;;;16.74;66.57;99572.91;4911087;29;20100;-75
2023/10/12 07:06:56;;;;;;;4.63;1.88;;;;;;;16.74;66.78;99580.88;4914926;29;20052;-75
2023/10/12 07:09:28;;;;;;;3.63;1.98;;;;;;;16.75;66.67;99587.88;4915236;29;20054;-74
2023/10/12 07:11:54;;;;;;;3.83;2.13;;;;;;;16.76;66.44;99589.59;4913677;29;20093;-75
2023/10/12 07:14:31;;;;;;;9.23;2.67;;;;;;;16.76;66.59;99589.59;4904016;29;20478;-75
2023/10/12 07:17:01;;;;;;;3.95;1.67;;;;;;;16.76;66.31;99589.59;4911991;29;20056;-76
2023/10/12 07:19:28;;;;;;;6.93;1.58;;;;;;;16.74;66.30;99593.34;4915042;29;20173;-75
2023/10/12 07:21:55;;;;;;;5.97;1.77;;;;;;;16.72;66.45;99588.16;4914823;29;20083;-75
2023/10/12 07:24:26;;;;;;;7.22;2.00;;;;;;;16.72;66.43;99587.31;4909248;29;20135;-76
2023/10/12 07:26:52;;;;;;;5.78;2.60;;;;;;;16.70;66.26;99597.25;4911106;29;20138;-75
2023/10/12 07:29:31;;;;;;;4.53;2.60;;;;;;;16.70;66.31;99598.06;4911315;29;20562;-75
2023/10/12 07:31:59;;;;;;;8.35;2.95;;;;;;;16.69;66.45;99599.06;4911522;29;20044;-74
2023/10/12 07:34:25;;;;;;;4.43;2.53;;;;;;;16.69;66.67;99601.72;4914674;29;20540;-75
2023/10/12 07:36:57;;;;;;;4.10;1.90;;;;;;;16.69;66.60;99615.00;4914724;29;20048;-75
2023/10/12 07:39:38;;;;;;;3.78;1.60;;;;;;;16.70;66.69;99613.19;4912704;29;20051;-74
2023/10/12 07:42:06;;;;;;;4.07;1.50;;;;;;;16.72;66.61;99613.88;4913888;29;20059;-75
2023/10/12 07:45:15;;;;;;;6.50;1.70;;;;;;;16.71;66.65;99610.38;4914589;29;20086;-76
2023/10/12 07:47:31;;;;;;;2.90;1.30;;;;;;;16.73;66.43;99620.88;4889015;29;20048;-75
2023/10/12 07:50:07;;;;;;;2.25;0.80;;;;;;;16.73;66.30;99621.75;4903458;29;20068;-75
2023/10/12 07:55:07;;;;;;;3.72;1.42;;;;;;;16.76;66.43;99617.97;4913478;29;20088;-75
2023/10/12 07:57:36;;;;;;;4.78;1.15;;;;;;;16.76;66.75;99616.16;4913114;29;20052;-75
2023/10/12 08:21:26;;;;;;;2.15;0.80;;;;;;;16.77;65.83;99638.25;4914096;29;20056;-76
2023/10/12 08:24:45;;;;;;;2.85;1.23;;;;;;;16.73;66.09;99637.69;4911918;29;20104;-75
2023/10/12 08:39:39;;;;;;;5.13;1.73;;;;;;;16.86;66.61;99639.31;4914264;29;20560;-75
2023/10/12 08:44:55;;;;;;;3.22;1.60;;;;;;;16.92;66.13;99636.09;4910134;29;20127;-74
2023/10/12 08:50:04;;;;;;;6.25;2.08;;;;;;;17.04;66.52;99618.25;4914077;29;20048;-75
2023/10/12 08:52:32;;;;;;;3.42;2.00;;;;;;;17.12;66.54;99628.25;4913943;29;20048;-77
2023/10/12 08:55:12;;;;;;;4.00;1.77;;;;;;;17.16;66.06;99635.81;4903583;29;20092;-74
2023/10/12 08:58:01;;;;;;;2.60;1.40;;;;;;;17.26;66.63;99640.34;4907778;29;20051;-76
2023/10/12 09:03:05;;;;;;;7.88;1.55;;;;;;;17.43;66.46;99634.38;4913816;29;20107;-76
2023/10/12 09:05:34;;;;;;;3.67;1.55;;;;;;;17.51;66.59;99631.06;4909484;29;20493;-76
2023/10/12 09:11:38;;;;;;;7.40;1.38;;;;;;;17.64;65.90;99637.97;4910252;29;20056;-75
2023/10/12 09:13:37;;;;;;;4.55;1.50;;;;;;;17.74;65.55;99635.28;4906620;29;20084;-76
2023/10/12 09:16:05;;;;;;;4.18;1.42;;;;;;;17.80;65.91;99645.41;4903121;29;20112;-75
2023/10/12 09:18:35;;;;;;;3.88;1.48;;;;;;;17.86;65.74;99644.84;4908987;29;20052;-74
2023/10/12 09:23:58;;;;;;;5.10;1.33;;;;;;;17.98;65.58;99661.53;4909649;29;20051;-75
2023/10/12 09:29:23;;;;;;;4.60;1.65;;;;;;;18.12;64.90;99654.19;4878104;29;20056;-76
2023/10/12 09:37:46;;;;;;;6.15;2.13;;;;;;;18.17;64.49;99658.09;4910386;29;20147;-75
2023/10/12 09:40:27;;;;;;;12.95;2.83;;;;;;;18.18;64.21;99658.94;4916719;29;20107;-75
2023/10/12 09:42:59;;;;;;;8.55;2.45;;;;;;;18.18;64.55;99664.25;4916628;29;20052;-76
2023/10/12 09:45:33;;;;;;;6.60;2.13;;;;;;;18.16;64.26;99667.06;4913160;29;20064;-75
2023/10/12 09:48:05;;;;;;;6.95;2.70;;;;;;;18.16;64.22;99664.41;4911526;29;20048;-74
2023/10/12 09:50:36;;;;;;;8.80;2.50;;;;;;;18.13;63.85;99674.50;4909211;29;20066;-75
2023/10/12 09:53:21;;;;;;;10.57;2.78;;;;;;;18.11;64.08;99663.97;4916518;29;20102;-75
2023/10/12 10:02:27;;;;;;;10.27;2.88;;;;;;;18.07;63.77;99658.06;4916268;29;20618;-74
2023/10/12 10:09:48;;;;;;;6.45;2.72;;;;;;;18.04;64.06;99658.34;4916293;29;20056;-75
2023/10/12 10:12:20;;;;;;;7.70;2.97;;;;;;;18.02;64.29;99660.28;4916166;29;20052;-75
2023/10/12 10:14:59;;;;;;;8.60;3.15;;;;;;;18.02;63.73;99660.28;4977301;23;20048;-77
2023/10/12 10:17:36;;;;;;;6.72;2.88;;;;;;;18.02;63.75;99657.63;4910609;29;20391;-80
2023/10/12 10:23:01;;;;;;;6.22;2.55;;;;;;;18.00;64.30;99667.59;4911504;29;20481;-78
2023/10/12 10:25:34;;;;;;;7.72;2.72;;;;;;;18.01;63.85;99657.78;4916310;29;20047;-75
2023/10/12 10:28:13;;;;;;;6.32;2.67;;;;;;;17.98;64.27;99664.19;4911581;29;20044;-80
2023/10/12 10:30:41;;;;;;;9.57;2.35;;;;;;;17.98;63.58;99659.72;4908061;29;20048;-77
2023/10/12 10:33:13;;;;;;;6.88;2.00;;;;;;;17.96;62.69;99658.19;4916465;29;20048;-78
2023/10/12 10:35:57;;;;;;;8.77;1.92;;;;;;;17.88;62.99;99658.88;4909470;29;20048;-78
2023/10/12 10:38:34;;;;;;;6.50;1.90;;;;;;;17.86;63.22;99649.34;4913771;29;20400;-78
2023/10/12 10:43:52;;;;;;;10.35;1.95;;;;;;;17.81;62.86;99655.94;4882519;29;20060;-77
2023/10/12 10:46:18;;;;;;;7.90;1.73;;;;;;;17.76;63.13;99655.47;4916031;29;20054;-79
2023/10/12 10:48:49;;;;;;;5.40;1.80;;;;;;;17.70;63.39;99662.22;4911895;29;20055;-78
2023/10/12 10:51:41;;;;;;;10.70;2.33;;;;;;;17.69;63.51;99665.00;4915885;29;20052;-77
2023/10/12 10:54:12;;;;;;;6.65;1.80;;;;;;;17.66;63.75;99659.94;4915995;29;20127;-78
2023/10/12 10:56:47;;;;;;;12.27;2.03;;;;;;;17.62;63.71;99658.53;4908408;29;20048;-78
2023/10/12 10:59:17;;;;;;;6.90;1.95;;;;;;;17.63;63.81;99660.22;4910907;29;20421;-78
2023/10/12 11:01:49;;;;;;;5.82;1.83;;;;;;;17.61;64.14;99664.84;4915713;29;20048;-77
2023/10/12 11:07:11;;;;;;;6.25;1.52;;;;;;;17.60;63.97;99663.16;4915824;29;20052;-77
2023/10/12 11:12:31;;;;;;;5.45;1.63;;;;;;;17.56;64.31;99662.56;4915563;29;20059;-77
2023/10/12 11:15:14;;;;;;;8.00;2.22;;;;;;;17.55;64.45;99658.22;4915780;29;20060;-77
2023/10/12 11:17:55;;;;;;;2.88;1.50;;;;;;;17.54;64.51;99662.69;4915208;29;20125;-79
2023/10/12 11:23:12;;;;;;;5.40;1.90;;;;;;;17.55;64.90;99642.25;4915336;29;20051;-77
2023/10/12 11:25:41;;;;;;;9.02;1.88;;;;;;;17.54;64.94;99652.06;4912270;29;20051;-79
2023/10/12 11:28:26;;;;;;;5.50;1.67;;;;;;;17.49;65.41;99654.28;4914336;29;20090;-77
2023/10/12 11:31:01;;;;;;;6.65;1.45;;;;;;;17.53;65.18;99653.03;4914776;29;20473;-81
2023/10/12 11:33:29;;;;;;;8.63;1.98;;;;;;;17.52;65.05;99651.38;4914724;29;20062;-79
2023/10/12 11:36:04;;;;;;;5.22;1.90;;;;;;;17.51;64.95;99644.38;4907128;29;20075;-75
2023/10/12 11:38:31;;;;;;;5.80;1.65;;;;;;;17.49;65.12;99643.66;4914995;29;20055;-77
2023/10/12 11:41:11;;;;;;;5.82;1.50;;;;;;;17.43;65.77;99647.69;4914599;29;20067;-81
2023/10/12 11:43:49;;;;;;;6.85;1.90;;;;;;;17.41;65.44;99646.13;4914543;29;20058;-81
2023/10/12 11:46:16;;;;;;;3.58;1.35;;;;;;;17.43;65.31;99644.19;4908018;29;20083;-80
2023/10/12 11:48:43;;;;;;;5.05;1.60;;;;;;;17.39;65.13;99640.97;4907020;29;20055;-78
2023/10/12 11:51:11;;;;;;;6.10;1.85;;;;;;;17.36;65.01;99637.72;4914564;29;20481;-77
2023/10/12 11:53:39;;;;;;;6.60;1.90;;;;;;;17.32;65.09;99635.31;4914534;29;20052;-80
2023/10/12 11:56:22;;;;;;;6.53;1.48;;;;;;;17.30;65.06;99641.75;4913281;29;20107;-79
2023/10/12 11:58:55;;;;;;;5.13;1.70;;;;;;;17.26;65.11;99637.69;4907659;29;20189;-78
2023/10/12 12:01:23;;;;;;;5.65;1.48;;;;;;;17.24;65.19;99631.66;4914558;29;20044;-80
2023/10/12 12:03:53;;;;;;;6.75;1.70;;;;;;;17.22;65.18;99642.44;4914525;29;20048;-77
2023/10/12 12:06:25;;;;;;;7.90;1.50;;;;;;;17.20;65.02;99633.75;4906870;29;20391;-79
2023/10/12 12:08:59;;;;;;;6.28;1.60;;;;;;;17.17;64.74;99639.34;4908003;29;20135;-79
2023/10/12 12:11:31;;;;;;;6.10;1.70;;;;;;;17.14;64.66;99634.28;4914473;29;20111;-78
2023/10/12 12:13:58;;;;;;;7.13;1.70;;;;;;;17.09;64.90;99628.53;4914608;29;20462;-77
2023/10/12 12:16:24;;;;;;;8.90;1.90;;;;;;;17.06;65.23;99622.50;4909544;29;20048;-78
2023/10/12 12:18:52;;;;;;;8.93;1.63;;;;;;;17.04;65.43;99626.22;4913622;29;20131;-77
2023/10/12 12:21:29;;;;;;;7.68;1.40;;;;;;;17.04;65.32;99623.56;4914174;29;20123;-83
2023/10/12 12:26:46;;;;;;;6.65;1.50;;;;;;;17.05;65.19;99618.13;4904122;29;20092;-78
2023/10/12 12:29:21;;;;;;;7.97;1.48;;;;;;;17.05;65.38;99615.47;4912920;29;20099;-79
2023/10/12 12:31:49;;;;;;;4.97;1.23;;;;;;;17.07;65.76;99623.34;4914564;29;20044;-79
2023/10/12 12:34:34;;;;;;;8.85;1.77;;;;;;;17.08;65.78;99617.03;4914095;29;20045;-79
2023/10/12 12:37:05;;;;;;;5.18;1.50;;;;;;;17.08;65.68;99613.56;4909474;29;20041;-77
2023/10/12 12:39:35;;;;;;;7.20;2.15;;;;;;;17.08;65.77;99610.88;4914081;29;20055;-78
2023/10/12 12:42:02;;;;;;;7.28;1.90;;;;;;;17.09;65.98;99607.25;4917822;29;20044;-78
2023/10/12 12:44:29;;;;;;;4.60;1.88;;;;;;;17.08;66.07;99614.38;4917831;29;20134;-79
2023/10/12 12:46:56;;;;;;;7.97;1.92;;;;;;;17.08;66.03;99614.38;4917118;29;20052;-78
2023/10/12 12:49:26;;;;;;;6.13;1.73;;;;;;;17.07;66.34;99618.00;4916985;29;20445;-78
2023/10/12 12:51:53;;;;;;;6.25;1.90;;;;;;;17.09;66.15;99616.06;4909865;29;20104;-77
2023/10/12 12:54:19;;;;;;;7.57;2.22;;;;;;;17.09;66.03;99609.91;4917080;29;20108;-78
2023/10/12 12:56:46;;;;;;;5.95;1.80;;;;;;;17.08;66.17;99602.91;4917210;29;20056;-79
2023/10/12 12:59:13;;;;;;;5.53;1.42;;;;;;;17.04;66.26;99611.16;4914882;29;20454;-78
2023/10/12 13:01:41;;;;;;;5.78;1.77;;;;;;;17.03;66.23;99612.09;4917578;29;20056;-80
2023/10/12 13:04:10;;;;;;;3.35;1.92;;;;;;;17.01;66.27;99614.03;4917393;29;20489;-80
2023/10/12 13:06:38;;;;;;;5.53;1.83;;;;;;;17.00;66.37;99609.69;4917198;29;20060;-81
2023/10/12 13:09:04;;;;;;;6.68;2.00;;;;;;;16.99;66.74;99608.03;4916149;29;20659;-77
2023/10/12 13:11:33;;;;;;;7.25;2.33;;;;;;;16.98;66.45;99611.66;4916125;29;20048;-79
2023/10/12 13:13:59;;;;;;;9.15;2.28;;;;;;;16.97;66.53;99615.28;4916159;29;20113;-78
2023/10/12 13:16:26;;;;;;;6.28;2.33;;;;;;;16.94;66.66;99611.06;4917070;29;20067;-79
2023/10/12 13:18:53;;;;;;;5.15;2.38;;;;;;;16.92;66.67;99605.06;4915403;29;20499;-81
2023/10/12 13:21:22;;;;;;;5.15;2.17;;;;;;;16.89;66.87;99610.63;4913078;29;20064;-79
2023/10/12 13:23:49;;;;;;;3.42;2.10;;;;;;;16.87;67.06;99601.97;4916925;29;20052;-77
2023/10/12 13:26:21;;;;;;;3.42;2.03;;;;;;;16.86;67.14;99610.06;4917188;29;20096;-78
2023/10/12 13:28:47;;;;;;;2.45;1.45;;;;;;;16.85;67.15;99603.06;4908146;29;20044;-78
2023/10/12 13:31:14;;;;;;;13.93;2.00;;;;;;;16.82;67.25;99613.94;4916529;29;20071;-80
2023/10/12 13:33:41;;;;;;;3.85;1.38;;;;;;;16.80;67.59;99598.13;4916889;29;20059;-77
2023/10/12 13:36:09;;;;;;;2.17;1.60;;;;;;;16.79;67.55;99604.44;4916636;29;20056;-77
2023/10/12 13:38:37;;;;;;;3.35;1.70;;;;;;;16.78;67.55;99605.38;4911267;29;20578;-80
2023/10/12 13:41:05;;;;;;;2.58;1.60;;;;;;;16.77;67.56;99606.34;4912734;29;20052;-77
2023/10/12 13:43:33;;;;;;;4.63;1.83;;;;;;;16.76;67.40;99610.00;4916669;29;20490;-79
2023/10/12 13:46:07;;;;;;;5.53;2.30;;;;;;;16.75;67.47;99609.16;4916696;29;20099;-77
2023/10/12 13:48:37;;;;;;;5.50;2.28;;;;;;;16.74;67.60;99609.31;4914520;29;20163;-77
2023/10/12 13:51:08;;;;;;;4.95;2.15;;;;;;;16.73;67.70;99610.25;4916461;29;20080;-78
2023/10/12 13:53:39;;;;;;;4.28;1.85;;;;;;;16.72;67.70;99613.88;4909206;29;20060;-78
2023/10/12 13:56:08;;;;;;;4.38;2.00;;;;;;;16.70;67.75;99608.69;4916455;29;20044;-77
2023/10/12 13:58:36;;;;;;;7.63;2.38;;;;;;;16.69;67.85;99612.34;4914719;29;20048;-81
2023/10/12 14:01:03;;;;;;;5.80;2.60;;;;;;;16.67;67.86;99603.63;4901302;29;20095;-78
2023/10/12 14:03:41;;;;;;;7.78;2.05;;;;;;;16.66;67.73;99607.28;4915057;29;20478;-79
2023/10/12 14:06:07;;;;;;;4.55;2.20;;;;;;;16.64;67.82;99611.91;4916434;29;20051;-77
2023/10/12 14:08:35;;;;;;;4.63;2.45;;;;;;;16.61;67.97;99607.69;4916354;29;20079;-80
2023/10/12 14:11:03;;;;;;;6.72;2.65;;;;;;;16.60;67.91;99607.81;4911537;29;20047;-77
2023/10/12 14:13:31;;;;;;;7.80;2.80;;;;;;;16.59;68.14;99599.00;4916277;29;20052;-78
2023/10/12 14:15:58;;;;;;;7.07;2.38;;;;;;;16.60;67.97;99599.84;4905446;29;20063;-77
2023/10/12 14:18:30;;;;;;;7.53;2.30;;;;;;;16.61;68.02;99597.06;4912332;29;20056;-79
2023/10/12 14:20:59;;;;;;;4.78;2.67;;;;;;;16.61;68.30;99601.50;4912203;29;20084;-80
2023/10/12 14:23:29;;;;;;;4.47;2.50;;;;;;;16.59;68.14;99612.28;4916396;29;20087;-80
2023/10/12 14:26:00;;;;;;;3.58;2.33;;;;;;;16.60;68.43;99613.94;4908332;29;20170;-77
2023/10/12 14:28:34;;;;;;;3.88;2.42;;;;;;;16.60;68.36;99605.97;4914586;29;20052;-77